EST,Max TemperatureF,Mean TemperatureF,Min TemperatureF,Max Dew PointF,MeanDew PointF,Min DewpointF,Max Humidity, Mean Humidity, Min Humidity, Max Sea Level PressureIn, Mean Sea Level PressureIn, Min Sea Level PressureIn, Max VisibilityMiles, Mean VisibilityMiles, Min VisibilityMiles, Max Wind SpeedMPH, Mean Wind SpeedMPH, Max Gust SpeedMPH,PrecipitationIn, CloudCover, Events, WindDirDegrees
2013-11-1,64,57,50,63,50,42,94,78,51,29.73,29.57,29.37,10,8,1,23,13,39,0.77,6,Rain,243
2013-11-2,53,48,45,41,40,35,86,69,56,30.06,29.85,29.72,10,10,10,10,8,18,0.00,8,,285
2013-11-3,55,44,33,40,37,31,100,77,45,30.42,30.26,30.07,10,10,9,9,3,,0.00,4,,356
2013-11-4,55,44,32,38,33,28,92,67,49,30.48,30.42,30.36,10,10,10,12,4,,0.00,0,,131
2013-11-5,61,52,44,42,38,35,76,60,47,30.45,30.37,30.27,10,10,10,9,6,,0.00,2,,156
2013-11-6,69,57,45,58,50,33,93,74,42,30.26,30.05,29.94,10,8,2,21,10,32,0.53,7,Rain,211
2013-11-7,51,42,34,48,37,26,94,77,46,30.21,30.11,29.98,10,10,4,15,10,31,0.19,7,Rain,303
2013-11-8,46,38,30,34,31,28,92,78,53,30.37,30.29,30.18,10,9,4,15,6,28,0.03,3,Rain,277
2013-11-9,59,46,33,34,29,27,89,53,32,30.28,30.12,30.01,10,10,10,21,8,30,0.00,1,,206
2013-11-10,48,38,27,36,30,24,89,65,44,30.36,30.24,30.06,10,10,10,17,10,26,0.00,2,,272
2013-11-11,48,36,25,43,34,23,93,80,48,30.32,30.18,30.07,10,8,4,18,6,26,0.20,7,Rain-Snow,274
2013-11-12,33,29,23,32,26,19,93,81,69,30.60,30.39,30.20,10,6,0,16,10,28,0.10,6,Fog-Snow,340
2013-11-13,37,28,19,22,19,17,89,68,44,30.63,30.55,30.42,10,10,9,12,4,,0.00,0,,235
2013-11-14,51,39,27,24,19,16,69,49,27,30.39,30.29,30.19,10,10,10,15,7,25,0.00,0,,191
2013-11-15,52,40,28,40,27,19,81,55,35,30.22,30.18,30.14,10,10,10,12,5,17,0.00,3,,193
2013-11-16,61,53,45,51,47,40,90,77,69,30.19,30.10,29.96,10,10,10,13,7,20,0.00,6,,163
2013-11-17,62,58,52,61,54,40,100,84,59,29.94,29.71,29.52,10,7,1,32,17,53,0.90,7,Rain-Thunderstorm,197
2013-11-18,51,45,37,39,34,25,82,64,46,30.17,29.96,29.76,10,9,2,23,13,32,0.00,1,,272
2013-11-19,41,34,27,27,25,23,89,70,51,30.40,30.31,30.17,10,10,10,10,5,,0.00,4,,355
2013-11-20,48,38,27,29,26,21,85,67,44,30.41,30.35,30.30,10,10,10,13,7,,0.00,0,,115
2013-11-21,55,47,39,44,36,26,83,61,50,30.39,30.29,30.22,10,10,6,10,7,,0.01,7,Rain,155
2013-11-22,54,46,37,52,47,30,100,90,76,30.35,30.20,30.14,10,6,1,18,6,24,0.35,8,Rain,285
2013-11-23,37,30,21,30,22,10,88,72,52,30.51,30.37,30.30,10,8,1,24,9,32,0.00,5,Snow,313
2013-11-24,26,20,15,13,9,5,84,64,41,30.66,30.59,30.51,10,10,10,12,7,18,0.00,0,,313
2013-11-25,37,26,16,27,15,9,81,60,34,30.54,30.35,30.20,10,9,2,10,5,22,0.00,4,Snow,191
2013-11-26,33,32,30,32,30,27,100,92,75,30.23,30.03,29.88,9,2,0,12,3,,0.32,8,Fog-Rain-Snow,348
2013-11-27,30,26,23,28,20,12,92,74,53,30.27,30.00,29.85,10,9,4,17,10,29,0.00,8,Snow,308
2013-11-28,30,24,18,21,17,13,86,73,56,30.46,30.36,30.23,10,10,10,12,7,20,0.00,6,,224
2013-11-29,36,25,14,22,18,11,89,75,57,30.65,30.60,30.46,10,9,6,7,2,,0.00,1,,328
2013-11-30,44,31,18,27,23,15,92,77,51,30.56,30.39,30.22,10,8,5,9,2,,0.00,1,,168